createdAt,value
2019-06-08T00:01:05.256Z,100926.88
2019-06-08T00:03:38.021Z,100925.66
2019-06-08T00:06:10.374Z,100925.23
2019-06-08T00:08:42.988Z,100933.78
2019-06-08T00:11:15.427Z,100930.45
2019-06-08T00:13:48.003Z,100921.75
2019-06-08T00:16:21.450Z,100922.72
2019-06-08T00:18:53.914Z,100928.25
2019-06-08T00:21:26.758Z,100927.97
2019-06-08T00:23:59.295Z,100934.35
2019-06-08T00:26:31.675Z,100926.29
2019-06-08T00:29:05.070Z,100926.80
2019-06-08T00:31:37.590Z,100929.88
2019-06-08T00:34:10.196Z,100932.74
2019-06-08T00:36:42.738Z,100933.53
2019-06-08T00:39:15.368Z,100942.59
2019-06-08T00:41:47.697Z,100925.07
2019-06-08T00:44:21.295Z,100928.83
2019-06-08T00:46:53.664Z,100930.84
2019-06-08T00:49:26.426Z,100928.00
2019-06-08T00:51:58.684Z,100933.16
2019-06-08T00:54:32.442Z,100933.16
2019-06-08T00:57:04.929Z,100923.13
2019-06-08T00:59:37.821Z,100929.11
2019-06-08T01:02:10.614Z,100921.42
2019-06-08T01:04:43.442Z,100925.92
2019-06-08T01:07:15.958Z,100938.49
2019-06-08T01:09:49.461Z,100944.77
2019-06-08T01:12:22.536Z,100943.51
2019-06-08T01:14:53.791Z,100946.44
2019-06-08T01:17:27.515Z,100947.05
2019-06-08T01:20:00.108Z,100944.12
2019-06-08T01:22:32.954Z,100944.23
2019-06-08T01:25:06.818Z,100941.77
2019-06-08T01:27:39.457Z,100942.91
2019-06-08T01:30:12.188Z,100951.26
2019-06-08T01:32:45.148Z,100941.41
2019-06-08T01:35:17.648Z,100941.84
2019-06-08T01:37:50.633Z,100941.41
2019-06-08T01:40:23.282Z,100935.89
2019-06-08T01:42:55.932Z,100949.39
2019-06-08T01:45:32.792Z,100953.61
2019-06-08T01:48:19.484Z,100956.88
2019-06-08T01:50:41.302Z,100952.09
2019-06-08T01:53:13.919Z,100945.43
2019-06-08T01:55:46.355Z,100949.16
2019-06-08T01:58:18.898Z,100950.84
2019-06-08T02:00:51.639Z,100944.44
2019-06-08T02:03:24.609Z,100942.52
2019-06-08T02:05:57.283Z,100941.34
2019-06-08T02:08:30.638Z,100939.66
2019-06-08T02:11:03.385Z,100938.30
2019-06-08T02:13:35.876Z,100938.27
2019-06-08T02:16:08.391Z,100932.25
2019-06-08T02:18:50.119Z,100937.39
2019-06-08T02:21:15.407Z,100945.45
2019-06-08T02:23:47.936Z,100941.39
2019-06-08T02:26:20.495Z,100946.91
2019-06-08T02:28:53.173Z,100946.17
2019-06-08T02:31:25.711Z,100947.28
2019-06-08T02:33:58.696Z,100952.94
2019-06-08T02:36:33.162Z,100952.40
2019-06-08T02:39:07.783Z,100957.03
2019-06-08T02:41:40.217Z,100961.30
2019-06-08T02:44:12.831Z,100960.84
2019-06-08T02:46:45.267Z,100960.72
2019-06-08T02:49:18.095Z,100966.17
2019-06-08T02:51:50.905Z,100966.17
2019-06-08T02:54:23.511Z,100971.98
2019-06-08T02:56:56.222Z,100975.50
2019-06-08T02:59:31.282Z,100967.54
2019-06-08T03:02:04.035Z,100972.60
2019-06-08T03:04:40.770Z,100972.89
2019-06-08T03:07:15.594Z,100968.18
2019-06-08T03:09:50.705Z,100968.47
2019-06-08T03:12:26.915Z,100970.41
2019-06-08T03:15:01.156Z,100971.93
2019-06-08T03:17:35.452Z,100970.75
2019-06-08T03:20:08.114Z,100963.27
2019-06-08T03:22:41.921Z,100967.98
2019-06-08T03:25:15.758Z,100968.00
2019-06-08T03:27:48.111Z,100964.38
2019-06-08T03:30:20.736Z,100962.83
2019-06-08T03:32:56.193Z,100971.55
2019-06-08T03:35:28.104Z,100973.28
2019-06-08T03:38:00.450Z,100971.33
2019-06-08T03:40:35.877Z,100969.08
2019-06-08T03:43:09.356Z,100972.64
2019-06-08T03:45:43.033Z,100975.77
2019-06-08T03:48:15.831Z,100976.99
2019-06-08T03:50:48.384Z,100977.70
2019-06-08T03:53:20.972Z,100980.89
2019-06-08T03:55:53.166Z,100976.65
2019-06-08T03:58:25.895Z,100979.11
2019-06-08T04:00:58.208Z,100984.95
2019-06-08T04:03:31.019Z,100980.24
2019-06-08T04:06:03.742Z,100983.04
2019-06-08T04:08:37.917Z,100978.78
2019-06-08T04:11:10.422Z,100984.27
2019-06-08T04:13:44.519Z,100981.57
2019-06-08T04:16:17.140Z,100987.89
2019-06-08T04:18:50.368Z,100990.16
2019-06-08T04:21:22.774Z,100987.68
2019-06-08T04:23:55.349Z,100994.19
2019-06-08T04:26:27.929Z,100992.64
2019-06-08T04:29:00.513Z,100994.61
2019-06-08T04:31:32.775Z,100991.04
2019-06-08T04:34:05.384Z,100993.01
2019-06-08T04:36:38.952Z,100997.67
2019-06-08T04:39:11.646Z,100998.75
2019-06-08T04:41:45.000Z,100998.76
2019-06-08T04:44:18.151Z,100996.58
2019-06-08T04:46:50.809Z,101004.72
2019-06-08T04:49:23.420Z,101006.47
2019-06-08T04:51:55.763Z,101005.19
2019-06-08T04:54:28.554Z,101005.81
2019-06-08T04:57:02.143Z,101004.08
2019-06-08T04:59:34.924Z,101012.69
2019-06-08T05:02:07.287Z,101010.08
2019-06-08T05:04:40.994Z,101014.95
2019-06-08T05:07:13.737Z,101019.14
2019-06-08T05:09:47.165Z,101005.84
2019-06-08T05:12:19.660Z,101014.79
2019-06-08T05:14:52.265Z,101024.10
2019-06-08T05:17:24.797Z,101008.64
2019-06-08T05:19:57.203Z,101016.21
2019-06-08T05:22:29.546Z,101015.78
2019-06-08T05:25:02.437Z,101018.88
2019-06-08T05:27:35.142Z,101017.38
2019-06-08T05:30:09.126Z,101014.28
2019-06-08T05:32:41.851Z,101025.88
2019-06-08T05:35:14.681Z,101018.97
2019-06-08T05:37:47.791Z,101023.63
2019-06-08T05:40:20.364Z,101022.25
2019-06-08T05:42:52.896Z,101020.09
2019-06-08T05:45:25.520Z,101022.55
2019-06-08T05:47:58.193Z,101026.33
2019-06-08T05:50:30.395Z,101027.86
2019-06-08T05:53:02.933Z,101037.33
2019-06-08T05:55:35.815Z,101025.77
2019-06-08T05:58:08.611Z,101022.83
2019-06-08T06:00:42.159Z,101025.79
2019-06-08T06:03:14.630Z,101032.93
2019-06-08T06:05:46.939Z,101029.69
2019-06-08T06:08:19.781Z,101038.11
2019-06-08T06:10:52.028Z,101027.87
2019-06-08T06:13:24.675Z,101030.06
2019-06-08T06:15:57.150Z,101033.26
2019-06-08T06:18:29.860Z,101030.86
2019-06-08T06:21:11.008Z,101043.70
2019-06-08T06:23:36.480Z,101029.66
2019-06-08T06:26:09.043Z,101040.28
2019-06-08T06:28:41.414Z,101029.25
2019-06-08T06:31:14.216Z,101038.70
2019-06-08T06:33:47.951Z,101026.31
2019-06-08T06:36:20.479Z,101022.19
2019-06-08T06:38:53.410Z,101020.41
2019-06-08T06:41:25.993Z,101017.79
2019-06-08T06:43:58.415Z,101018.88
2019-06-08T06:46:31.267Z,101021.44
2019-06-08T06:49:03.521Z,101025.59
2019-06-08T06:51:36.124Z,101016.61
2019-06-08T06:54:08.496Z,101022.31
2019-06-08T06:56:41.251Z,101021.22
2019-06-08T06:59:13.623Z,101025.31
2019-06-08T07:01:47.549Z,101014.54
2019-06-08T07:04:21.227Z,101018.00
2019-06-08T07:06:54.411Z,101017.86
2019-06-08T07:09:26.893Z,101015.98
2019-06-08T07:11:59.413Z,101012.61
2019-06-08T07:14:32.106Z,101008.62
2019-06-08T07:17:04.937Z,101023.33
2019-06-08T07:19:37.239Z,101011.57
2019-06-08T07:22:10.823Z,101011.44
2019-06-08T07:24:43.286Z,101003.89
2019-06-08T07:27:16.093Z,101009.03
2019-06-08T07:29:48.646Z,101001.03
2019-06-08T07:32:21.606Z,101002.49
2019-06-08T07:34:55.346Z,101007.08
2019-06-08T07:37:28.622Z,101004.41
2019-06-08T07:40:01.617Z,101003.23
2019-06-08T07:42:34.668Z,101001.55
2019-06-08T07:45:08.825Z,101003.48
2019-06-08T07:47:43.611Z,100991.17
2019-06-08T07:50:17.805Z,101003.59
2019-06-08T07:52:52.780Z,100996.34
2019-06-08T07:55:26.182Z,101004.75
2019-06-08T07:58:00.336Z,101001.22
2019-06-08T08:00:35.550Z,100988.06
2019-06-08T08:03:09.335Z,100996.06
2019-06-08T08:05:43.259Z,100999.47
2019-06-08T08:08:16.282Z,101009.79
2019-06-08T08:10:50.290Z,100969.87
2019-06-08T08:13:23.687Z,101000.05
2019-06-08T08:15:58.594Z,100996.13
2019-06-08T08:18:30.467Z,100992.38
2019-06-08T08:21:15.474Z,100982.75
2019-06-08T08:23:39.488Z,100981.33
2019-06-08T08:26:12.403Z,100994.89
2019-06-08T08:28:44.983Z,100974.99
2019-06-08T08:31:18.632Z,100972.21
2019-06-08T08:33:52.533Z,100974.48
2019-06-08T08:36:25.453Z,100974.57
2019-06-08T08:39:00.562Z,100983.17
2019-06-08T08:41:31.779Z,100964.38
2019-06-08T08:44:04.812Z,100964.25
2019-06-08T08:46:38.687Z,100959.67
2019-06-08T08:49:13.179Z,100962.48
2019-06-08T08:51:47.569Z,100966.34
2019-06-08T08:54:19.737Z,100987.84
2019-06-08T08:56:55.036Z,100960.23
2019-06-08T08:59:28.023Z,100975.53
2019-06-08T09:02:02.591Z,100956.55
2019-06-08T09:04:37.866Z,100953.62
2019-06-08T09:07:10.634Z,100957.44
2019-06-08T09:09:43.123Z,100950.03
2019-06-08T09:12:18.074Z,100953.53
2019-06-08T09:14:49.665Z,100960.70
2019-06-08T09:17:23.825Z,100948.00
2019-06-08T09:19:58.798Z,100945.95
2019-06-08T09:22:31.257Z,100936.13
2019-06-08T09:25:04.616Z,100947.25
2019-06-08T09:27:38.302Z,100940.03
2019-06-08T09:30:10.767Z,100937.98
2019-06-08T09:32:43.650Z,100932.22
2019-06-08T09:35:18.786Z,100925.59
2019-06-08T09:37:50.178Z,100928.17
2019-06-08T09:40:22.436Z,100919.56
2019-06-08T09:42:58.325Z,100905.47
2019-06-08T09:45:29.835Z,100912.55
2019-06-08T09:48:05.502Z,100909.02
2019-06-08T09:50:38.529Z,100905.89
2019-06-08T09:53:23.743Z,100912.06
2019-06-08T09:55:44.318Z,100906.81
2019-06-08T09:58:18.026Z,100904.14
2019-06-08T10:00:51.529Z,100910.04
2019-06-08T10:03:24.207Z,100907.14
2019-06-08T10:06:01.540Z,100903.41
2019-06-08T10:08:30.816Z,100909.16
2019-06-08T10:11:04.864Z,100895.43
2019-06-08T10:13:39.143Z,100894.87
2019-06-08T10:16:11.444Z,100900.58
2019-06-08T10:18:44.185Z,100911.04
2019-06-08T10:21:18.268Z,100902.14
2019-06-08T10:23:50.747Z,100905.08
2019-06-08T10:26:23.090Z,100905.00
2019-06-08T10:28:58.712Z,100908.30
2019-06-08T10:31:38.897Z,100900.43
2019-06-08T10:34:04.913Z,100908.20
2019-06-08T10:36:38.301Z,100903.72
2019-06-08T10:39:11.796Z,100900.67
2019-06-08T10:41:44.464Z,100906.34
2019-06-08T10:44:18.371Z,100913.06
2019-06-08T10:46:51.671Z,100912.50
2019-06-08T10:49:24.305Z,100912.97
2019-06-08T10:52:01.172Z,100910.36
2019-06-08T10:54:30.911Z,100928.22
2019-06-08T10:57:06.568Z,100930.86
2019-06-08T10:59:40.234Z,100928.66
2019-06-08T11:02:14.481Z,100933.53
2019-06-08T11:04:53.508Z,100931.77
2019-06-08T11:07:27.994Z,100936.61
2019-06-08T11:10:02.033Z,100945.43
2019-06-08T11:12:37.596Z,100934.44
2019-06-08T11:15:11.781Z,100936.48
2019-06-08T11:17:43.963Z,100935.22
2019-06-08T11:20:16.849Z,100927.17
2019-06-08T11:22:50.149Z,100930.81
2019-06-08T11:25:23.308Z,100927.27
2019-06-08T11:27:58.254Z,100926.45
2019-06-08T11:30:30.685Z,100923.14
2019-06-08T11:33:03.819Z,100917.48
2019-06-08T11:35:38.377Z,100912.61
2019-06-08T11:38:12.617Z,100902.27
2019-06-08T11:40:47.737Z,100898.45
2019-06-08T11:43:19.466Z,100900.25
2019-06-08T11:45:52.077Z,100903.56
2019-06-08T11:48:25.349Z,100904.16
2019-06-08T11:50:58.532Z,100907.42
2019-06-08T11:53:30.979Z,100899.11
2019-06-08T11:56:05.237Z,100899.08
2019-06-08T11:58:38.920Z,100899.98
2019-06-08T12:01:13.797Z,100894.17
2019-06-08T12:03:45.354Z,100893.98
2019-06-08T12:06:18.589Z,100892.08
2019-06-08T12:08:51.191Z,100887.34
2019-06-08T12:11:23.845Z,100873.73
2019-06-08T12:13:58.397Z,100876.29
2019-06-08T12:16:30.489Z,100874.08
2019-06-08T12:19:04.300Z,100876.63
2019-06-08T12:21:36.974Z,100872.03
2019-06-08T12:24:10.372Z,100858.56
2019-06-08T12:26:43.916Z,100854.75
2019-06-08T12:29:18.773Z,100862.02
2019-06-08T12:31:50.173Z,100857.77
2019-06-08T12:34:22.843Z,100857.43
2019-06-08T12:36:55.566Z,100853.59
2019-06-08T12:39:28.290Z,100846.34
2019-06-08T12:42:00.830Z,100851.98
2019-06-08T12:44:33.450Z,100833.56
2019-06-08T12:47:07.985Z,100835.38
2019-06-08T12:49:40.429Z,100829.56
2019-06-08T12:52:14.546Z,100818.58
2019-06-08T12:54:59.226Z,100811.11
2019-06-08T12:57:22.157Z,100809.80
2019-06-08T13:00:00.004Z,100807.84
2019-06-08T13:02:31.675Z,100804.38
2019-06-08T13:05:10.727Z,100797.92
2019-06-08T13:07:41.604Z,100799.72
2019-06-08T13:10:15.319Z,100795.11
2019-06-08T13:12:48.016Z,100795.88
2019-06-08T13:15:22.030Z,100790.48
2019-06-08T13:17:54.612Z,100788.53
2019-06-08T13:20:28.341Z,100791.64
2019-06-08T13:23:00.941Z,100789.44
2019-06-08T13:25:40.182Z,100786.21
2019-06-08T13:28:10.903Z,100783.63
2019-06-08T13:30:41.558Z,100781.95
2019-06-08T13:33:14.096Z,100776.98
2019-06-08T13:35:48.017Z,100763.81
2019-06-08T13:38:23.021Z,100756.80
2019-06-08T13:40:55.292Z,100762.10
2019-06-08T13:43:27.770Z,100726.73
2019-06-08T13:46:00.294Z,100754.09
2019-06-08T13:48:33.062Z,100759.50
2019-06-08T13:51:05.673Z,100765.77
2019-06-08T13:53:38.479Z,100769.11
2019-06-08T13:56:11.109Z,100769.34
2019-06-08T13:58:43.339Z,100771.31
2019-06-08T14:01:17.498Z,100778.61
2019-06-08T14:03:50.551Z,100781.83
2019-06-08T14:06:23.725Z,100777.50
2019-06-08T14:08:58.047Z,100771.69
2019-06-08T14:11:30.458Z,100779.02
2019-06-08T14:14:02.885Z,100786.45
2019-06-08T14:16:35.437Z,100781.84
2019-06-08T14:19:08.650Z,100787.27
2019-06-08T14:21:42.026Z,100785.44
2019-06-08T14:24:14.407Z,100783.63
2019-06-08T14:26:48.599Z,100788.72
2019-06-08T14:29:22.867Z,100791.63
2019-06-08T14:31:57.589Z,100795.95
2019-06-08T14:34:30.885Z,100800.94
2019-06-08T14:37:03.356Z,100805.23
2019-06-08T14:39:35.717Z,100809.34
2019-06-08T14:42:08.457Z,100798.23
2019-06-08T14:44:40.874Z,100800.42
2019-06-08T14:47:16.220Z,100797.03
2019-06-08T14:49:48.984Z,100800.31
2019-06-08T14:52:22.703Z,100798.70
2019-06-08T14:54:58.514Z,100805.06
2019-06-08T14:57:30.928Z,100803.08
2019-06-08T15:00:08.629Z,100803.81
2019-06-08T15:02:38.811Z,100802.39
2019-06-08T15:05:11.363Z,100811.69
2019-06-08T15:07:43.772Z,100809.92
2019-06-08T15:10:18.182Z,100814.50
2019-06-08T15:12:53.546Z,100808.72
2019-06-08T15:15:25.868Z,100809.15
2019-06-08T15:17:59.138Z,100817.41
2019-06-08T15:20:31.702Z,100821.27
2019-06-08T15:23:04.400Z,100824.27
2019-06-08T15:25:38.681Z,100828.75
2019-06-08T15:28:11.022Z,100824.41
2019-06-08T15:30:43.371Z,100829.94
2019-06-08T15:33:18.179Z,100828.95
2019-06-08T15:35:49.932Z,100830.70
2019-06-08T15:38:23.859Z,100834.63
2019-06-08T15:40:57.655Z,100835.34
2019-06-08T15:43:35.257Z,100833.59
2019-06-08T15:46:05.362Z,100833.36
2019-06-08T15:48:38.226Z,100829.09
2019-06-08T15:51:10.617Z,100827.03
2019-06-08T15:53:43.229Z,100825.48
2019-06-08T15:56:15.570Z,100831.56
2019-06-08T15:58:48.747Z,100834.73
2019-06-08T16:01:21.135Z,100832.86
2019-06-08T16:03:53.906Z,100836.71
2019-06-08T16:06:27.694Z,100836.48
2019-06-08T16:09:00.393Z,100842.28
2019-06-08T16:11:34.651Z,100844.20
2019-06-08T16:14:07.330Z,100847.81
2019-06-08T16:16:40.101Z,100852.22
2019-06-08T16:19:12.454Z,100839.28
2019-06-08T16:21:45.028Z,100843.16
2019-06-08T16:24:17.379Z,100847.29
2019-06-08T16:26:53.210Z,100849.80
2019-06-08T16:29:23.771Z,100826.86
2019-06-08T16:31:57.537Z,100856.09
2019-06-08T16:34:31.267Z,100851.96
2019-06-08T16:37:03.876Z,100862.14
2019-06-08T16:39:36.240Z,100854.69
2019-06-08T16:42:08.764Z,100854.68
2019-06-08T16:44:41.296Z,100854.95
2019-06-08T16:47:13.928Z,100854.13
2019-06-08T16:49:46.227Z,100849.98
2019-06-08T16:52:18.668Z,100847.49
2019-06-08T16:54:51.451Z,100849.97
2019-06-08T16:57:23.983Z,100856.00
2019-06-08T16:59:56.716Z,100854.84
2019-06-08T17:02:29.130Z,100855.11
2019-06-08T17:05:01.715Z,100855.89
2019-06-08T17:07:35.588Z,100858.09
2019-06-08T17:10:08.428Z,100858.07
2019-06-08T17:12:40.772Z,100850.03
2019-06-08T17:15:13.950Z,100847.26
2019-06-08T17:17:46.435Z,100850.22
2019-06-08T17:20:19.021Z,100842.50
2019-06-08T17:22:51.288Z,100844.10
2019-06-08T17:25:23.966Z,100835.79
2019-06-08T17:27:56.386Z,100833.01
2019-06-08T17:30:28.959Z,100832.16
2019-06-08T17:33:01.552Z,100831.57
2019-06-08T17:35:35.592Z,100836.51
2019-06-08T17:38:08.118Z,100832.35
2019-06-08T17:40:40.633Z,100836.77
2019-06-08T17:43:13.139Z,100835.09
2019-06-08T17:45:45.562Z,100830.68
2019-06-08T17:48:18.704Z,100828.75
2019-06-08T17:50:51.404Z,100833.95
2019-06-08T17:53:23.892Z,100841.03
2019-06-08T17:55:56.227Z,100843.41
2019-06-08T17:58:28.733Z,100845.55
2019-06-08T18:01:01.365Z,100849.80
2019-06-08T18:03:35.382Z,100846.91
2019-06-08T18:06:08.075Z,100850.11
2019-06-08T18:08:43.325Z,100850.05
2019-06-08T18:11:17.216Z,100854.91
2019-06-08T18:13:48.929Z,100852.33
2019-06-08T18:16:21.801Z,100850.06
2019-06-08T18:18:54.818Z,100851.94
2019-06-08T18:21:28.257Z,100854.33
2019-06-08T18:24:01.027Z,100859.95
2019-06-08T18:26:34.343Z,100858.25
2019-06-08T18:29:07.892Z,100869.92
2019-06-08T18:31:42.557Z,100868.16
2019-06-08T18:34:14.550Z,100876.05
2019-06-08T18:36:48.016Z,100883.08
2019-06-08T18:39:20.735Z,100886.33
2019-06-08T18:41:53.249Z,100898.02
2019-06-08T18:44:28.310Z,100892.59
2019-06-08T18:47:00.050Z,100890.11
2019-06-08T18:49:32.931Z,100895.95
2019-06-08T18:52:07.986Z,100909.64
2019-06-08T18:54:41.630Z,100909.97
2019-06-08T18:57:14.668Z,100897.13
2019-06-08T18:59:52.595Z,100908.55
2019-06-08T19:02:21.506Z,100914.82
2019-06-08T19:04:54.066Z,100914.54
2019-06-08T19:07:28.359Z,100913.89
2019-06-08T19:10:04.273Z,100924.61
2019-06-08T19:12:39.582Z,100922.20
2019-06-08T19:15:11.419Z,100924.03
2019-06-08T19:17:50.282Z,100933.75
2019-06-08T19:20:18.507Z,100933.83
2019-06-08T19:22:54.328Z,100933.83
2019-06-08T19:25:27.181Z,100933.38
2019-06-08T19:27:59.879Z,100937.07
2019-06-08T19:30:32.684Z,100942.22
2019-06-08T19:33:07.190Z,100946.69
2019-06-08T19:35:40.767Z,100948.01
2019-06-08T19:38:13.821Z,100946.57
2019-06-08T19:40:46.475Z,100957.90
2019-06-08T19:43:19.080Z,100957.36
2019-06-08T19:45:52.663Z,100958.25
2019-06-08T19:48:29.829Z,100960.40
2019-06-08T19:50:59.513Z,100953.75
2019-06-08T19:53:32.557Z,100956.88
2019-06-08T19:56:07.672Z,100956.66
2019-06-08T19:58:52.421Z,100956.66
2019-06-08T20:01:13.700Z,100955.61
2019-06-08T20:03:46.986Z,100971.31
2019-06-08T20:06:20.238Z,100971.31
2019-06-08T20:08:53.400Z,100971.05
2019-06-08T20:11:26.115Z,100972.23
2019-06-08T20:13:58.831Z,100980.84
2019-06-08T20:16:31.343Z,100980.83
2019-06-08T20:19:04.156Z,100983.42
2019-06-08T20:21:38.125Z,100982.44
2019-06-08T20:24:13.204Z,100979.20
2019-06-08T20:26:47.164Z,100977.25
2019-06-08T20:29:20.250Z,100975.41
2019-06-08T20:31:53.768Z,100982.48
2019-06-08T20:34:27.136Z,100976.62
2019-06-08T20:37:01.545Z,100981.47
2019-06-08T20:39:38.308Z,100976.72
2019-06-08T20:42:11.964Z,100976.62
2019-06-08T20:44:44.613Z,100983.53
2019-06-08T20:47:20.677Z,100983.84
2019-06-08T20:49:53.531Z,100982.98
2019-06-08T20:52:28.025Z,100986.16
2019-06-08T20:55:00.372Z,100988.54
2019-06-08T20:57:32.986Z,100994.81
2019-06-08T21:00:11.868Z,100992.76
2019-06-08T21:02:43.955Z,100989.43
2019-06-08T21:05:18.220Z,100993.61
2019-06-08T21:07:52.885Z,100988.61
2019-06-08T21:10:24.969Z,100984.42
2019-06-08T21:12:58.741Z,100985.95
2019-06-08T21:15:31.558Z,100985.41
2019-06-08T21:18:04.188Z,100986.01
2019-06-08T21:20:37.762Z,100982.11
2019-06-08T21:23:09.475Z,100984.99
2019-06-08T21:25:41.586Z,100986.26
2019-06-08T21:28:13.853Z,100986.80
2019-06-08T21:30:53.334Z,100993.84
2019-06-08T21:33:20.951Z,100994.19
2019-06-08T21:35:57.781Z,100991.49
2019-06-08T21:38:28.201Z,100998.37
2019-06-08T21:41:02.925Z,100993.07
2019-06-08T21:43:37.444Z,100994.10
2019-06-08T21:46:09.811Z,100993.62
2019-06-08T21:48:42.293Z,101002.72
2019-06-08T21:51:14.855Z,101004.01
2019-06-08T21:53:49.465Z,101001.41
2019-06-08T21:56:21.450Z,100998.56
2019-06-08T21:58:54.675Z,100998.52
2019-06-08T22:01:30.161Z,100998.95
2019-06-08T22:04:02.538Z,101008.44
2019-06-08T22:06:37.240Z,101011.97
2019-06-08T22:09:09.692Z,101004.77
2019-06-08T22:11:42.492Z,101000.43
2019-06-08T22:14:15.259Z,101005.66
2019-06-08T22:16:47.902Z,101000.98
2019-06-08T22:19:20.374Z,101006.75
2019-06-08T22:21:53.787Z,101012.19
2019-06-08T22:24:27.753Z,101007.22
2019-06-08T22:27:01.868Z,101002.70
2019-06-08T22:29:34.756Z,101017.91
2019-06-08T22:32:07.817Z,101009.19
2019-06-08T22:34:40.552Z,101005.49
2019-06-08T22:37:12.896Z,101003.52
2019-06-08T22:39:47.777Z,101006.20
2019-06-08T22:42:19.589Z,100999.63
2019-06-08T22:44:52.731Z,100988.44
2019-06-08T22:47:27.159Z,100992.47
2019-06-08T22:50:00.835Z,100989.91
2019-06-08T22:52:33.594Z,101000.16
2019-06-08T22:55:09.714Z,100997.42
2019-06-08T22:57:39.448Z,101008.23
2019-06-08T23:00:17.587Z,101012.52
2019-06-08T23:02:48.596Z,101013.66
2019-06-08T23:05:20.721Z,101019.27
2019-06-08T23:07:54.770Z,101017.37
2019-06-08T23:10:27.219Z,101009.19
2019-06-08T23:13:02.320Z,101016.47
2019-06-08T23:15:34.285Z,101015.42
2019-06-08T23:18:09.473Z,101020.61
2019-06-08T23:20:41.180Z,101017.44
2019-06-08T23:23:13.662Z,101017.60
2019-06-08T23:25:47.888Z,101015.75
2019-06-08T23:28:20.573Z,101013.95
2019-06-08T23:31:05.877Z,101010.78
2019-06-08T23:33:27.938Z,101028.36
2019-06-08T23:36:33.697Z,101030.33
2019-06-08T23:38:34.540Z,101033.52
2019-06-08T23:41:09.725Z,101037.52
2019-06-08T23:43:41.244Z,101042.58
2019-06-08T23:46:13.839Z,101040.99
2019-06-08T23:48:48.428Z,101038.58
2019-06-08T23:51:20.601Z,101028.56
2019-06-08T23:53:53.269Z,101029.58
2019-06-08T23:56:27.730Z,101032.01
2019-06-08T23:59:00.369Z,101028.02
